sensor_id;sensor_type;location;lat;lon;timestamp;P1;durP1;ratioP1;P2;durP2;ratioP2
17228;SDS011;8731;50.364;8.958;2022-12-29T00:04:13;2.80;;;1.70;;
17228;SDS011;8731;50.364;8.958;2022-12-29T00:08:36;1.93;;;1.70;;
17228;SDS011;8731;50.364;8.958;2022-12-29T00:13:01;2.30;;;1.60;;
17228;SDS011;8731;50.364;8.958;2022-12-29T00:17:41;2.00;;;1.63;;
17228;SDS011;8731;50.364;8.958;2022-12-29T00:22:04;2.77;;;1.80;;
17228;SDS011;8731;50.364;8.958;2022-12-29T00:26:46;2.50;;;1.57;;
17228;SDS011;8731;50.364;8.958;2022-12-29T00:31:28;4.60;;;1.60;;
17228;SDS011;8731;50.364;8.958;2022-12-29T00:36:09;2.70;;;1.60;;
17228;SDS011;8731;50.364;8.958;2022-12-29T00:40:39;2.83;;;1.80;;
17228;SDS011;8731;50.364;8.958;2022-12-29T00:45:19;4.13;;;1.90;;
17228;SDS011;8731;50.364;8.958;2022-12-29T00:49:42;3.30;;;1.70;;
17228;SDS011;8731;50.364;8.958;2022-12-29T00:54:04;3.70;;;1.80;;
17228;SDS011;8731;50.364;8.958;2022-12-29T00:58:28;3.77;;;1.87;;
17228;SDS011;8731;50.364;8.958;2022-12-29T01:02:51;3.27;;;1.60;;
17228;SDS011;8731;50.364;8.958;2022-12-29T01:07:13;2.47;;;1.70;;
17228;SDS011;8731;50.364;8.958;2022-12-29T01:11:38;5.10;;;1.77;;
17228;SDS011;8731;50.364;8.958;2022-12-29T01:16:02;5.20;;;2.20;;
17228;SDS011;8731;50.364;8.958;2022-12-29T01:20:26;2.70;;;2.10;;
17228;SDS011;8731;50.364;8.958;2022-12-29T01:24:48;5.10;;;2.10;;
17228;SDS011;8731;50.364;8.958;2022-12-29T01:29:11;2.53;;;2.13;;
17228;SDS011;8731;50.364;8.958;2022-12-29T01:33:35;2.70;;;1.87;;
17228;SDS011;8731;50.364;8.958;2022-12-29T01:37:58;7.40;;;2.40;;
17228;SDS011;8731;50.364;8.958;2022-12-29T01:42:22;3.57;;;2.00;;
17228;SDS011;8731;50.364;8.958;2022-12-29T01:46:47;3.73;;;2.10;;
17228;SDS011;8731;50.364;8.958;2022-12-29T01:51:13;4.13;;;2.20;;
17228;SDS011;8731;50.364;8.958;2022-12-29T01:55:37;2.43;;;2.00;;
17228;SDS011;8731;50.364;8.958;2022-12-29T02:00:08;3.80;;;2.03;;
17228;SDS011;8731;50.364;8.958;2022-12-29T02:04:34;2.93;;;2.10;;
17228;SDS011;8731;50.364;8.958;2022-12-29T02:09:05;3.27;;;1.80;;
17228;SDS011;8731;50.364;8.958;2022-12-29T02:13:27;2.80;;;1.70;;
17228;SDS011;8731;50.364;8.958;2022-12-29T02:17:53;2.50;;;1.60;;
17228;SDS011;8731;50.364;8.958;2022-12-29T02:22:38;2.10;;;1.50;;
17228;SDS011;8731;50.364;8.958;2022-12-29T02:27:31;5.40;;;1.50;;
17228;SDS011;8731;50.364;8.958;2022-12-29T02:32:14;3.87;;;1.67;;
17228;SDS011;8731;50.364;8.958;2022-12-29T02:36:47;1.97;;;1.40;;
17228;SDS011;8731;50.364;8.958;2022-12-29T02:41:22;2.33;;;1.50;;
17228;SDS011;8731;50.364;8.958;2022-12-29T02:45:54;1.93;;;1.10;;
17228;SDS011;8731;50.364;8.958;2022-12-29T02:50:25;1.73;;;1.10;;
17228;SDS011;8731;50.364;8.958;2022-12-29T02:54:55;2.73;;;1.40;;
17228;SDS011;8731;50.364;8.958;2022-12-29T02:59:17;2.70;;;1.33;;
17228;SDS011;8731;50.364;8.958;2022-12-29T03:03:42;2.37;;;1.47;;
17228;SDS011;8731;50.364;8.958;2022-12-29T03:08:22;1.40;;;1.30;;
17228;SDS011;8731;50.364;8.958;2022-12-29T03:12:56;2.37;;;1.20;;
17228;SDS011;8731;50.364;8.958;2022-12-29T03:17:48;2.57;;;1.17;;
17228;SDS011;8731;50.364;8.958;2022-12-29T03:22:21;1.97;;;1.20;;
17228;SDS011;8731;50.364;8.958;2022-12-29T03:26:56;1.87;;;1.00;;
17228;SDS011;8731;50.364;8.958;2022-12-29T03:31:26;1.50;;;1.00;;
17228;SDS011;8731;50.364;8.958;2022-12-29T03:35:49;2.73;;;1.30;;
17228;SDS011;8731;50.364;8.958;2022-12-29T03:40:21;1.87;;;1.20;;
17228;SDS011;8731;50.364;8.958;2022-12-29T03:44:48;4.20;;;1.20;;
17228;SDS011;8731;50.364;8.958;2022-12-29T03:49:17;1.97;;;1.00;;
17228;SDS011;8731;50.364;8.958;2022-12-29T03:53:39;1.57;;;0.80;;
17228;SDS011;8731;50.364;8.958;2022-12-29T03:58:02;4.00;;;1.20;;
17228;SDS011;8731;50.364;8.958;2022-12-29T04:02:45;2.00;;;1.27;;
17228;SDS011;8731;50.364;8.958;2022-12-29T04:07:13;1.10;;;0.73;;
17228;SDS011;8731;50.364;8.958;2022-12-29T04:11:36;1.83;;;1.20;;
17228;SDS011;8731;50.364;8.958;2022-12-29T04:15:59;2.07;;;0.90;;
17228;SDS011;8731;50.364;8.958;2022-12-29T04:20:23;3.37;;;1.37;;
17228;SDS011;8731;50.364;8.958;2022-12-29T04:25:03;3.13;;;1.50;;
17228;SDS011;8731;50.364;8.958;2022-12-29T04:29:27;1.30;;;0.90;;
17228;SDS011;8731;50.364;8.958;2022-12-29T04:34:09;4.60;;;1.10;;
17228;SDS011;8731;50.364;8.958;2022-12-29T04:38:33;1.67;;;1.30;;
17228;SDS011;8731;50.364;8.958;2022-12-29T04:42:58;2.40;;;1.17;;
17228;SDS011;8731;50.364;8.958;2022-12-29T04:47:20;2.70;;;1.20;;
17228;SDS011;8731;50.364;8.958;2022-12-29T04:51:53;1.23;;;0.87;;
17228;SDS011;8731;50.364;8.958;2022-12-29T04:56:18;1.97;;;1.13;;
17228;SDS011;8731;50.364;8.958;2022-12-29T05:00:42;1.37;;;1.10;;
17228;SDS011;8731;50.364;8.958;2022-12-29T05:05:05;3.73;;;1.50;;
17228;SDS011;8731;50.364;8.958;2022-12-29T05:09:33;2.17;;;1.20;;
17228;SDS011;8731;50.364;8.958;2022-12-29T05:13:57;2.33;;;1.40;;
17228;SDS011;8731;50.364;8.958;2022-12-29T05:18:19;2.33;;;1.20;;
17228;SDS011;8731;50.364;8.958;2022-12-29T05:22:43;2.50;;;1.60;;
17228;SDS011;8731;50.364;8.958;2022-12-29T05:27:05;4.20;;;1.60;;
17228;SDS011;8731;50.364;8.958;2022-12-29T05:32:04;8.87;;;1.70;;
17228;SDS011;8731;50.364;8.958;2022-12-29T05:36:27;1.90;;;1.07;;
17228;SDS011;8731;50.364;8.958;2022-12-29T05:40:53;3.33;;;1.70;;
17228;SDS011;8731;50.364;8.958;2022-12-29T05:45:38;1.37;;;1.07;;
17228;SDS011;8731;50.364;8.958;2022-12-29T05:50:29;3.40;;;1.40;;
17228;SDS011;8731;50.364;8.958;2022-12-29T05:55:06;6.23;;;1.33;;
17228;SDS011;8731;50.364;8.958;2022-12-29T05:59:32;1.80;;;1.10;;
17228;SDS011;8731;50.364;8.958;2022-12-29T06:03:55;5.53;;;1.30;;
17228;SDS011;8731;50.364;8.958;2022-12-29T06:08:19;3.67;;;1.40;;
17228;SDS011;8731;50.364;8.958;2022-12-29T06:12:42;3.03;;;1.20;;
17228;SDS011;8731;50.364;8.958;2022-12-29T06:17:05;2.23;;;1.00;;
17228;SDS011;8731;50.364;8.958;2022-12-29T06:21:28;2.63;;;1.30;;
17228;SDS011;8731;50.364;8.958;2022-12-29T06:25:53;12.97;;;6.33;;
17228;SDS011;8731;50.364;8.958;2022-12-29T06:30:16;2.23;;;1.80;;
17228;SDS011;8731;50.364;8.958;2022-12-29T06:34:38;3.63;;;1.90;;
17228;SDS011;8731;50.364;8.958;2022-12-29T06:39:01;2.53;;;1.20;;
17228;SDS011;8731;50.364;8.958;2022-12-29T06:43:25;2.50;;;1.40;;
17228;SDS011;8731;50.364;8.958;2022-12-29T06:48:13;3.00;;;1.40;;
17228;SDS011;8731;50.364;8.958;2022-12-29T06:52:35;2.90;;;1.80;;
17228;SDS011;8731;50.364;8.958;2022-12-29T06:56:58;3.40;;;1.63;;
17228;SDS011;8731;50.364;8.958;2022-12-29T07:01:23;1.73;;;1.23;;
17228;SDS011;8731;50.364;8.958;2022-12-29T07:05:45;2.30;;;1.93;;
17228;SDS011;8731;50.364;8.958;2022-12-29T07:10:08;2.53;;;0.93;;
17228;SDS011;8731;50.364;8.958;2022-12-29T07:14:30;2.87;;;2.03;;
17228;SDS011;8731;50.364;8.958;2022-12-29T07:18:54;3.77;;;1.50;;
17228;SDS011;8731;50.364;8.958;2022-12-29T07:23:16;2.90;;;1.57;;
17228;SDS011;8731;50.364;8.958;2022-12-29T07:27:39;3.53;;;2.77;;
17228;SDS011;8731;50.364;8.958;2022-12-29T07:32:01;3.43;;;2.60;;
17228;SDS011;8731;50.364;8.958;2022-12-29T07:36:25;2.97;;;1.87;;
17228;SDS011;8731;50.364;8.958;2022-12-29T07:40:47;3.83;;;1.67;;
17228;SDS011;8731;50.364;8.958;2022-12-29T07:45:10;2.10;;;1.73;;
17228;SDS011;8731;50.364;8.958;2022-12-29T07:49:43;3.67;;;2.33;;
17228;SDS011;8731;50.364;8.958;2022-12-29T07:54:06;4.43;;;2.80;;
17228;SDS011;8731;50.364;8.958;2022-12-29T07:58:29;3.90;;;1.80;;
17228;SDS011;8731;50.364;8.958;2022-12-29T08:02:52;4.23;;;1.93;;
17228;SDS011;8731;50.364;8.958;2022-12-29T08:07:14;4.97;;;2.23;;
17228;SDS011;8731;50.364;8.958;2022-12-29T08:11:39;6.17;;;1.70;;
17228;SDS011;8731;50.364;8.958;2022-12-29T08:16:03;2.87;;;1.70;;
17228;SDS011;8731;50.364;8.958;2022-12-29T08:20:26;4.77;;;2.13;;
17228;SDS011;8731;50.364;8.958;2022-12-29T08:24:48;3.03;;;1.57;;
17228;SDS011;8731;50.364;8.958;2022-12-29T08:29:12;2.43;;;1.50;;
17228;SDS011;8731;50.364;8.958;2022-12-29T08:33:34;2.40;;;1.70;;
17228;SDS011;8731;50.364;8.958;2022-12-29T08:37:56;3.97;;;2.10;;
17228;SDS011;8731;50.364;8.958;2022-12-29T08:42:19;3.73;;;2.10;;
17228;SDS011;8731;50.364;8.958;2022-12-29T08:46:42;2.23;;;1.60;;
17228;SDS011;8731;50.364;8.958;2022-12-29T08:51:05;2.67;;;1.80;;
17228;SDS011;8731;50.364;8.958;2022-12-29T08:55:28;2.37;;;1.67;;
17228;SDS011;8731;50.364;8.958;2022-12-29T08:59:50;2.70;;;1.93;;
17228;SDS011;8731;50.364;8.958;2022-12-29T09:04:14;5.33;;;1.93;;
17228;SDS011;8731;50.364;8.958;2022-12-29T09:08:36;4.30;;;1.73;;
17228;SDS011;8731;50.364;8.958;2022-12-29T09:12:58;6.53;;;1.97;;
17228;SDS011;8731;50.364;8.958;2022-12-29T09:17:21;5.47;;;2.57;;
17228;SDS011;8731;50.364;8.958;2022-12-29T09:22:01;6.33;;;2.20;;
17228;SDS011;8731;50.364;8.958;2022-12-29T09:26:24;5.17;;;2.33;;
17228;SDS011;8731;50.364;8.958;2022-12-29T09:30:47;3.10;;;2.20;;
17228;SDS011;8731;50.364;8.958;2022-12-29T09:35:10;6.80;;;2.40;;
17228;SDS011;8731;50.364;8.958;2022-12-29T09:39:33;5.80;;;1.97;;
17228;SDS011;8731;50.364;8.958;2022-12-29T09:43:59;4.13;;;2.40;;
17228;SDS011;8731;50.364;8.958;2022-12-29T09:48:34;6.33;;;2.60;;
17228;SDS011;8731;50.364;8.958;2022-12-29T09:53:04;5.57;;;2.50;;
17228;SDS011;8731;50.364;8.958;2022-12-29T09:57:38;4.87;;;2.70;;
17228;SDS011;8731;50.364;8.958;2022-12-29T10:02:12;3.07;;;2.30;;
17228;SDS011;8731;50.364;8.958;2022-12-29T10:06:51;4.20;;;2.80;;
17228;SDS011;8731;50.364;8.958;2022-12-29T10:11:26;3.33;;;1.97;;
17228;SDS011;8731;50.364;8.958;2022-12-29T10:16:18;3.20;;;2.00;;
17228;SDS011;8731;50.364;8.958;2022-12-29T10:20:52;2.00;;;1.77;;
17228;SDS011;8731;50.364;8.958;2022-12-29T10:25:22;5.00;;;3.57;;
17228;SDS011;8731;50.364;8.958;2022-12-29T10:29:50;5.53;;;3.80;;
17228;SDS011;8731;50.364;8.958;2022-12-29T10:34:20;4.93;;;2.73;;
17228;SDS011;8731;50.364;8.958;2022-12-29T10:38:50;3.40;;;2.40;;
17228;SDS011;8731;50.364;8.958;2022-12-29T10:43:25;4.33;;;2.40;;
17228;SDS011;8731;50.364;8.958;2022-12-29T10:47:52;3.97;;;2.30;;
17228;SDS011;8731;50.364;8.958;2022-12-29T10:52:22;4.90;;;2.17;;
17228;SDS011;8731;50.364;8.958;2022-12-29T10:56:49;6.50;;;4.77;;
17228;SDS011;8731;50.364;8.958;2022-12-29T11:01:16;6.17;;;4.50;;
17228;SDS011;8731;50.364;8.958;2022-12-29T11:05:41;3.50;;;3.10;;
17228;SDS011;8731;50.364;8.958;2022-12-29T11:10:19;3.20;;;2.10;;
17228;SDS011;8731;50.364;8.958;2022-12-29T11:15:11;2.93;;;2.10;;
17228;SDS011;8731;50.364;8.958;2022-12-29T11:19:36;3.67;;;1.80;;
17228;SDS011;8731;50.364;8.958;2022-12-29T11:23:58;5.77;;;2.00;;
17228;SDS011;8731;50.364;8.958;2022-12-29T11:28:24;3.20;;;2.20;;
17228;SDS011;8731;50.364;8.958;2022-12-29T11:32:50;4.40;;;1.90;;
17228;SDS011;8731;50.364;8.958;2022-12-29T11:37:16;4.43;;;2.40;;
17228;SDS011;8731;50.364;8.958;2022-12-29T11:41:41;4.87;;;2.87;;
17228;SDS011;8731;50.364;8.958;2022-12-29T11:46:16;4.57;;;2.47;;
17228;SDS011;8731;50.364;8.958;2022-12-29T11:50:42;7.20;;;4.50;;
17228;SDS011;8731;50.364;8.958;2022-12-29T11:55:16;6.13;;;3.70;;
17228;SDS011;8731;50.364;8.958;2022-12-29T11:59:42;9.37;;;5.43;;
17228;SDS011;8731;50.364;8.958;2022-12-29T12:04:11;9.20;;;4.27;;
17228;SDS011;8731;50.364;8.958;2022-12-29T12:08:41;8.00;;;5.70;;
17228;SDS011;8731;50.364;8.958;2022-12-29T12:13:20;6.67;;;4.60;;
17228;SDS011;8731;50.364;8.958;2022-12-29T12:17:53;4.37;;;2.93;;
17228;SDS011;8731;50.364;8.958;2022-12-29T12:22:25;6.30;;;3.47;;
17228;SDS011;8731;50.364;8.958;2022-12-29T12:26:56;7.23;;;2.37;;
17228;SDS011;8731;50.364;8.958;2022-12-29T12:31:26;5.13;;;3.80;;
17228;SDS011;8731;50.364;8.958;2022-12-29T12:36:18;6.17;;;4.20;;
17228;SDS011;8731;50.364;8.958;2022-12-29T12:41:08;4.43;;;3.10;;
17228;SDS011;8731;50.364;8.958;2022-12-29T12:45:41;4.00;;;2.53;;
17228;SDS011;8731;50.364;8.958;2022-12-29T12:55:22;4.87;;;2.17;;
17228;SDS011;8731;50.364;8.958;2022-12-29T13:00:07;2.60;;;0.90;;
17228;SDS011;8731;50.364;8.958;2022-12-29T13:04:47;5.43;;;1.67;;
17228;SDS011;8731;50.364;8.958;2022-12-29T13:09:43;3.53;;;2.10;;
17228;SDS011;8731;50.364;8.958;2022-12-29T13:14:26;3.83;;;1.77;;
17228;SDS011;8731;50.364;8.958;2022-12-29T13:19:06;6.20;;;1.90;;
17228;SDS011;8731;50.364;8.958;2022-12-29T13:23:41;2.93;;;1.40;;
17228;SDS011;8731;50.364;8.958;2022-12-29T13:28:14;3.70;;;1.67;;
17228;SDS011;8731;50.364;8.958;2022-12-29T13:32:49;2.70;;;1.40;;
17228;SDS011;8731;50.364;8.958;2022-12-29T13:37:26;3.43;;;1.87;;
17228;SDS011;8731;50.364;8.958;2022-12-29T13:41:53;4.37;;;1.50;;
17228;SDS011;8731;50.364;8.958;2022-12-29T13:46:19;2.90;;;1.50;;
17228;SDS011;8731;50.364;8.958;2022-12-29T13:50:48;2.07;;;1.10;;
17228;SDS011;8731;50.364;8.958;2022-12-29T13:55:22;3.30;;;1.67;;
17228;SDS011;8731;50.364;8.958;2022-12-29T13:59:52;3.37;;;1.50;;
17228;SDS011;8731;50.364;8.958;2022-12-29T14:04:32;16.83;;;5.77;;
17228;SDS011;8731;50.364;8.958;2022-12-29T14:08:55;2.70;;;1.53;;
17228;SDS011;8731;50.364;8.958;2022-12-29T14:13:22;3.33;;;1.63;;
17228;SDS011;8731;50.364;8.958;2022-12-29T14:17:59;3.03;;;1.60;;
17228;SDS011;8731;50.364;8.958;2022-12-29T14:22:31;3.60;;;1.90;;
17228;SDS011;8731;50.364;8.958;2022-12-29T14:26:54;3.57;;;1.90;;
17228;SDS011;8731;50.364;8.958;2022-12-29T14:31:36;4.73;;;2.20;;
17228;SDS011;8731;50.364;8.958;2022-12-29T14:45:40;5.13;;;2.80;;
17228;SDS011;8731;50.364;8.958;2022-12-29T14:50:06;3.53;;;2.03;;
17228;SDS011;8731;50.364;8.958;2022-12-29T14:54:42;5.80;;;2.53;;
17228;SDS011;8731;50.364;8.958;2022-12-29T14:59:12;4.27;;;2.10;;
17228;SDS011;8731;50.364;8.958;2022-12-29T15:03:38;3.53;;;1.80;;
17228;SDS011;8731;50.364;8.958;2022-12-29T15:08:08;5.43;;;2.10;;
17228;SDS011;8731;50.364;8.958;2022-12-29T15:12:38;4.50;;;1.70;;
17228;SDS011;8731;50.364;8.958;2022-12-29T15:17:10;6.10;;;2.97;;
17228;SDS011;8731;50.364;8.958;2022-12-29T15:21:46;3.53;;;2.67;;
17228;SDS011;8731;50.364;8.958;2022-12-29T15:26:11;4.43;;;1.93;;
17228;SDS011;8731;50.364;8.958;2022-12-29T15:30:51;4.07;;;2.80;;
17228;SDS011;8731;50.364;8.958;2022-12-29T15:35:22;7.47;;;4.50;;
17228;SDS011;8731;50.364;8.958;2022-12-29T15:39:49;5.13;;;3.03;;
17228;SDS011;8731;50.364;8.958;2022-12-29T15:44:16;5.87;;;2.53;;
17228;SDS011;8731;50.364;8.958;2022-12-29T15:48:45;4.03;;;2.20;;
17228;SDS011;8731;50.364;8.958;2022-12-29T15:53:09;5.20;;;2.47;;
17228;SDS011;8731;50.364;8.958;2022-12-29T15:57:41;5.73;;;2.90;;
17228;SDS011;8731;50.364;8.958;2022-12-29T16:02:08;7.27;;;3.27;;
17228;SDS011;8731;50.364;8.958;2022-12-29T16:06:32;5.43;;;2.10;;
17228;SDS011;8731;50.364;8.958;2022-12-29T16:10:57;6.63;;;2.33;;
17228;SDS011;8731;50.364;8.958;2022-12-29T16:15:22;5.47;;;2.20;;
17228;SDS011;8731;50.364;8.958;2022-12-29T16:19:50;3.57;;;2.03;;
17228;SDS011;8731;50.364;8.958;2022-12-29T16:24:16;4.13;;;2.50;;
17228;SDS011;8731;50.364;8.958;2022-12-29T16:28:46;6.37;;;2.90;;
17228;SDS011;8731;50.364;8.958;2022-12-29T16:33:29;9.10;;;4.37;;
17228;SDS011;8731;50.364;8.958;2022-12-29T16:38:12;6.27;;;2.70;;
17228;SDS011;8731;50.364;8.958;2022-12-29T16:42:44;6.83;;;3.33;;
17228;SDS011;8731;50.364;8.958;2022-12-29T16:47:20;7.67;;;3.10;;
17228;SDS011;8731;50.364;8.958;2022-12-29T16:51:43;7.57;;;3.20;;
17228;SDS011;8731;50.364;8.958;2022-12-29T16:56:09;9.53;;;4.80;;
17228;SDS011;8731;50.364;8.958;2022-12-29T17:00:37;5.90;;;3.40;;
17228;SDS011;8731;50.364;8.958;2022-12-29T17:04:59;5.77;;;3.17;;
17228;SDS011;8731;50.364;8.958;2022-12-29T17:09:22;5.37;;;3.37;;
17228;SDS011;8731;50.364;8.958;2022-12-29T17:13:48;6.90;;;4.00;;
17228;SDS011;8731;50.364;8.958;2022-12-29T17:18:10;5.67;;;3.50;;
17228;SDS011;8731;50.364;8.958;2022-12-29T17:22:32;7.17;;;2.67;;
17228;SDS011;8731;50.364;8.958;2022-12-29T17:26:56;4.47;;;3.13;;
17228;SDS011;8731;50.364;8.958;2022-12-29T17:31:21;5.97;;;2.60;;
17228;SDS011;8731;50.364;8.958;2022-12-29T17:35:44;7.17;;;3.23;;
17228;SDS011;8731;50.364;8.958;2022-12-29T17:40:09;10.93;;;6.47;;
17228;SDS011;8731;50.364;8.958;2022-12-29T17:44:36;9.00;;;3.50;;
17228;SDS011;8731;50.364;8.958;2022-12-29T17:49:00;11.00;;;5.50;;
17228;SDS011;8731;50.364;8.958;2022-12-29T17:53:23;12.63;;;7.87;;
17228;SDS011;8731;50.364;8.958;2022-12-29T17:57:52;6.83;;;5.10;;
17228;SDS011;8731;50.364;8.958;2022-12-29T18:02:21;6.90;;;4.30;;
17228;SDS011;8731;50.364;8.958;2022-12-29T18:06:49;7.90;;;4.97;;
17228;SDS011;8731;50.364;8.958;2022-12-29T18:11:15;10.90;;;5.50;;
17228;SDS011;8731;50.364;8.958;2022-12-29T18:15:44;10.50;;;7.50;;
17228;SDS011;8731;50.364;8.958;2022-12-29T18:20:07;6.80;;;5.20;;
17228;SDS011;8731;50.364;8.958;2022-12-29T18:24:31;9.37;;;5.43;;
17228;SDS011;8731;50.364;8.958;2022-12-29T18:28:53;6.87;;;4.70;;
17228;SDS011;8731;50.364;8.958;2022-12-29T18:33:17;6.87;;;4.10;;
17228;SDS011;8731;50.364;8.958;2022-12-29T18:37:42;8.40;;;3.87;;
17228;SDS011;8731;50.364;8.958;2022-12-29T18:42:06;4.23;;;3.03;;
17228;SDS011;8731;50.364;8.958;2022-12-29T18:46:30;5.70;;;3.60;;
17228;SDS011;8731;50.364;8.958;2022-12-29T18:50:52;5.33;;;2.50;;
17228;SDS011;8731;50.364;8.958;2022-12-29T18:55:15;5.07;;;2.97;;
17228;SDS011;8731;50.364;8.958;2022-12-29T18:59:41;5.47;;;3.00;;
17228;SDS011;8731;50.364;8.958;2022-12-29T19:04:04;8.73;;;3.50;;
17228;SDS011;8731;50.364;8.958;2022-12-29T19:08:29;6.93;;;3.80;;
17228;SDS011;8731;50.364;8.958;2022-12-29T19:12:51;8.97;;;3.90;;
17228;SDS011;8731;50.364;8.958;2022-12-29T19:17:16;6.63;;;4.10;;
17228;SDS011;8731;50.364;8.958;2022-12-29T19:21:38;9.73;;;6.03;;
17228;SDS011;8731;50.364;8.958;2022-12-29T19:26:00;8.97;;;5.40;;
17228;SDS011;8731;50.364;8.958;2022-12-29T19:30:23;13.00;;;7.63;;
17228;SDS011;8731;50.364;8.958;2022-12-29T19:34:47;14.07;;;7.70;;
17228;SDS011;8731;50.364;8.958;2022-12-29T19:39:10;22.53;;;12.90;;
17228;SDS011;8731;50.364;8.958;2022-12-29T19:43:34;11.27;;;6.60;;
17228;SDS011;8731;50.364;8.958;2022-12-29T19:47:56;14.97;;;6.93;;
17228;SDS011;8731;50.364;8.958;2022-12-29T19:52:20;10.33;;;4.00;;
17228;SDS011;8731;50.364;8.958;2022-12-29T19:56:42;8.23;;;5.03;;
17228;SDS011;8731;50.364;8.958;2022-12-29T20:01:05;9.90;;;5.37;;
17228;SDS011;8731;50.364;8.958;2022-12-29T20:05:31;8.70;;;4.33;;
17228;SDS011;8731;50.364;8.958;2022-12-29T20:09:55;9.53;;;3.50;;
17228;SDS011;8731;50.364;8.958;2022-12-29T20:14:17;8.57;;;3.07;;
17228;SDS011;8731;50.364;8.958;2022-12-29T20:18:40;11.93;;;3.83;;
17228;SDS011;8731;50.364;8.958;2022-12-29T20:23:03;9.57;;;4.07;;
17228;SDS011;8731;50.364;8.958;2022-12-29T20:27:27;9.40;;;4.13;;
17228;SDS011;8731;50.364;8.958;2022-12-29T20:31:50;7.47;;;3.30;;
17228;SDS011;8731;50.364;8.958;2022-12-29T20:36:14;14.37;;;6.20;;
17228;SDS011;8731;50.364;8.958;2022-12-29T20:40:40;7.73;;;5.13;;
17228;SDS011;8731;50.364;8.958;2022-12-29T20:45:06;10.47;;;3.93;;
17228;SDS011;8731;50.364;8.958;2022-12-29T20:49:29;8.83;;;3.20;;
17228;SDS011;8731;50.364;8.958;2022-12-29T20:53:54;8.33;;;3.30;;
17228;SDS011;8731;50.364;8.958;2022-12-29T20:58:17;12.87;;;3.73;;
17228;SDS011;8731;50.364;8.958;2022-12-29T21:02:41;6.03;;;3.13;;
17228;SDS011;8731;50.364;8.958;2022-12-29T21:07:03;10.50;;;2.80;;
17228;SDS011;8731;50.364;8.958;2022-12-29T21:11:26;9.37;;;3.00;;
17228;SDS011;8731;50.364;8.958;2022-12-29T21:15:53;9.97;;;3.60;;
17228;SDS011;8731;50.364;8.958;2022-12-29T21:20:19;16.93;;;6.50;;
17228;SDS011;8731;50.364;8.958;2022-12-29T21:24:48;10.43;;;2.87;;
17228;SDS011;8731;50.364;8.958;2022-12-29T21:29:11;9.40;;;3.20;;
17228;SDS011;8731;50.364;8.958;2022-12-29T21:33:33;9.70;;;3.17;;
17228;SDS011;8731;50.364;8.958;2022-12-29T21:37:58;10.23;;;2.53;;
17228;SDS011;8731;50.364;8.958;2022-12-29T21:42:20;6.97;;;2.27;;
17228;SDS011;8731;50.364;8.958;2022-12-29T21:46:43;11.33;;;4.03;;
17228;SDS011;8731;50.364;8.958;2022-12-29T21:51:08;13.33;;;3.90;;
17228;SDS011;8731;50.364;8.958;2022-12-29T21:55:53;15.50;;;5.27;;
17228;SDS011;8731;50.364;8.958;2022-12-29T22:00:16;12.33;;;2.93;;
17228;SDS011;8731;50.364;8.958;2022-12-29T22:04:56;8.90;;;2.43;;
17228;SDS011;8731;50.364;8.958;2022-12-29T22:09:35;6.60;;;2.27;;
17228;SDS011;8731;50.364;8.958;2022-12-29T22:14:17;9.40;;;2.67;;
17228;SDS011;8731;50.364;8.958;2022-12-29T22:18:39;9.73;;;2.43;;
17228;SDS011;8731;50.364;8.958;2022-12-29T22:23:02;5.57;;;2.40;;
17228;SDS011;8731;50.364;8.958;2022-12-29T22:27:25;12.27;;;2.37;;
17228;SDS011;8731;50.364;8.958;2022-12-29T22:31:48;13.13;;;3.50;;
17228;SDS011;8731;50.364;8.958;2022-12-29T22:36:11;10.13;;;2.40;;
17228;SDS011;8731;50.364;8.958;2022-12-29T22:40:33;7.63;;;2.10;;
17228;SDS011;8731;50.364;8.958;2022-12-29T22:44:56;12.20;;;3.07;;
17228;SDS011;8731;50.364;8.958;2022-12-29T22:49:19;8.73;;;2.47;;
17228;SDS011;8731;50.364;8.958;2022-12-29T22:53:41;7.10;;;2.10;;
17228;SDS011;8731;50.364;8.958;2022-12-29T22:58:04;5.87;;;2.07;;
17228;SDS011;8731;50.364;8.958;2022-12-29T23:02:26;8.57;;;2.27;;
17228;SDS011;8731;50.364;8.958;2022-12-29T23:06:50;8.97;;;1.73;;
17228;SDS011;8731;50.364;8.958;2022-12-29T23:11:13;5.17;;;1.70;;
17228;SDS011;8731;50.364;8.958;2022-12-29T23:15:36;10.90;;;2.20;;
17228;SDS011;8731;50.364;8.958;2022-12-29T23:19:59;7.33;;;2.10;;
17228;SDS011;8731;50.364;8.958;2022-12-29T23:24:22;8.10;;;2.20;;
17228;SDS011;8731;50.364;8.958;2022-12-29T23:28:45;8.57;;;2.03;;
17228;SDS011;8731;50.364;8.958;2022-12-29T23:33:07;13.07;;;2.50;;
17228;SDS011;8731;50.364;8.958;2022-12-29T23:37:30;6.10;;;2.47;;
17228;SDS011;8731;50.364;8.958;2022-12-29T23:41:53;8.70;;;1.67;;
17228;SDS011;8731;50.364;8.958;2022-12-29T23:46:17;9.73;;;2.03;;
17228;SDS011;8731;50.364;8.958;2022-12-29T23:50:42;8.03;;;1.97;;
17228;SDS011;8731;50.364;8.958;2022-12-29T23:55:04;6.33;;;2.00;;
17228;SDS011;8731;50.364;8.958;2022-12-29T23:59:29;8.60;;;2.60;;
